Map

Track Data

SID SEASON NUMBER BASIN SUBBASIN NAME ISO_TIME NATURE LAT LON WMO_WIND WMO_PRES WMO_AGENCY TRACK_TYPE DIST2LAND LANDFALL IFLAG USA_AGENCY USA_ATCF_ID USA_LAT USA_LON USA_RECORD USA_STATUS USA_WIND USA_PRES USA_SSHS USA_R34_NE USA_R34_SE USA_R34_SW USA_R34_NW USA_R50_NE USA_R50_SE USA_R50_SW USA_R50_NW USA_R64_NE USA_R64_SE USA_R64_SW USA_R64_NW USA_POCI USA_ROCI USA_RMW USA_EYE TOKYO_LAT TOKYO_LON TOKYO_GRADE TOKYO_WIND TOKYO_PRES TOKYO_R50_DIR TOKYO_R50_LONG TOKYO_R50_SHORT TOKYO_R30_DIR TOKYO_R30_LONG TOKYO_R30_SHORT TOKYO_LAND CMA_LAT CMA_LON CMA_CAT CMA_WIND CMA_PRES HKO_LAT HKO_LON HKO_CAT HKO_WIND HKO_PRES NEWDELHI_LAT NEWDELHI_LON NEWDELHI_GRADE NEWDELHI_WIND NEWDELHI_PRES NEWDELHI_CI NEWDELHI_DP NEWDELHI_POCI REUNION_LAT REUNION_LON REUNION_TYPE REUNION_WIND REUNION_PRES REUNION_TNUM REUNION_CI REUNION_RMW REUNION_R34_NE REUNION_R34_SE REUNION_R34_SW REUNION_R34_NW REUNION_R50_NE REUNION_R50_SE REUNION_R50_SW REUNION_R50_NW REUNION_R64_NE REUNION_R64_SE REUNION_R64_SW REUNION_R64_NW BOM_LAT BOM_LON BOM_TYPE BOM_WIND BOM_PRES BOM_TNUM BOM_CI BOM_RMW BOM_R34_NE BOM_R34_SE BOM_R34_SW BOM_R34_NW BOM_R50_NE BOM_R50_SE BOM_R50_SW BOM_R50_NW BOM_R64_NE BOM_R64_SE BOM_R64_SW BOM_R64_NW BOM_ROCI BOM_POCI BOM_EYE BOM_POS_METHOD BOM_PRES_METHOD NADI_LAT NADI_LON NADI_CAT NADI_WIND NADI_PRES WELLINGTON_LAT WELLINGTON_LON WELLINGTON_WIND WELLINGTON_PRES DS824_LAT DS824_LON DS824_STAGE DS824_WIND DS824_PRES TD9636_LAT TD9636_LON TD9636_STAGE TD9636_WIND TD9636_PRES TD9635_LAT TD9635_LON TD9635_WIND TD9635_PRES TD9635_ROCI NEUMANN_LAT NEUMANN_LON NEUMANN_CLASS NEUMANN_WIND NEUMANN_PRES MLC_LAT MLC_LON MLC_CLASS MLC_WIND MLC_PRES USA_GUST BOM_GUST BOM_GUST_PER REUNION_GUST REUNION_GUST_PER USA_SEAHGT USA_SEARAD_NE USA_SEARAD_SE USA_SEARAD_SW USA_SEARAD_NW STORM_SPEED STORM_DIR
1900227N20091 1900 15 NI BB NOT_NAMED 1900-08-15 00:00:00 TS 19.9000 90.7000 main 198 198 _________O____ -1 19.9000 90.7000 TC 64 1 295
1900227N20091 1900 15 NI BB NOT_NAMED 1900-08-15 03:00:00 TS 19.9333 90.6317 main 207 203 _________PO___ -1 19.9500 90.5975 TC 64 19.9000 90.7000 4 2 299
1900227N20091 1900 15 NI BB NOT_NAMED 1900-08-15 06:00:00 TS 19.9819 90.5425 main 203 203 _________OP___ -1 20.0000 90.5000 TC 64 19.9547 90.6063 4 2 301
1900227N20091 1900 15 NI BB NOT_NAMED 1900-08-15 09:00:00 TS 20.0318 90.4515 main 203 191 _________PP___ -1 20.0500 90.4075 TC 64 20.0075 90.5101 4 2 299
1900227N20091 1900 15 NI BB NOT_NAMED 1900-08-15 12:00:00 TS 20.0783 90.3544 main 191 190 _________OP___ -1 20.1000 90.3000 TC 64 20.0566 90.4088 4 2 294
1900227N20091 1900 15 NI BB NOT_NAMED 1900-08-15 15:00:00 TS 20.1288 90.2213 main 190 178 _________PO___ -1 20.1575 90.1425 TC 64 20.1000 90.3000 4 3 290
1900227N20091 1900 15 NI BB NOT_NAMED 1900-08-15 18:00:00 TS 20.1681 90.0919 main 178 178 _________OP___ -1 20.2000 90.0000 TC 64 20.1363 90.1838 4 2 285
1900227N20091 1900 15 NI BB NOT_NAMED 1900-08-15 21:00:00 TS 20.1863 89.9987 main 178 175 _________PP___ -1 20.2075 89.9275 TC 64 20.1650 90.0700 4 1 280
1900227N20091 1900 15 NI BB NOT_NAMED 1900-08-16 00:00:00 TS 20.1931 89.9356 main 175 175 _________OP___ -1 20.2000 89.9000 TC 64 20.1863 89.9713 4 1 278
1900227N20091 1900 15 NI BB NOT_NAMED 1900-08-16 03:00:00 TS 20.2000 89.8963 main 175 175 _________PO___ -1 20.2000 89.8925 TC 64 20.2000 89.9000 4 0 285
1900227N20091 1900 15 NI BB NOT_NAMED 1900-08-16 06:00:00 TS 20.2036 89.8856 main 175 175 _________OP___ -1 20.2000 89.9000 TC 64 20.2072 89.8712 4 0 0
1900227N20091 1900 15 NI BB NOT_NAMED 1900-08-16 09:00:00 TS 20.2037 89.8850 main 175 175 _________PP___ -1 20.2000 89.9000 TC 64 20.2075 89.8700 4 0 0
1900227N20091 1900 15 NI BB NOT_NAMED 1900-08-16 12:00:00 TS 20.2020 89.8919 main 175 175 _________OP___ -1 20.2000 89.9000 TC 64 20.2040 89.8837 4 0 0
1900227N20091 1900 15 NI BB NOT_NAMED 1900-08-16 15:00:00 TS 20.2000 89.9000 main 175 175 _________PO___ -1 20.2000 89.9000 TC 64 20.2000 89.9000 4 0 108
1900227N20091 1900 15 NI BB NOT_NAMED 1900-08-16 18:00:00 TS 20.1898 89.9243 main 175 175 _________OP___ -1 20.2000 89.9000 TC 64 20.1795 89.9486 4 1 118
1900227N20091 1900 15 NI BB NOT_NAMED 1900-08-16 21:00:00 TS 20.1736 89.9636 main 178 175 _________PP___ -1 20.1849 89.9374 TC 64 20.1622 89.9897 4 0 0
1900227N20091 1900 15 NI BB NOT_NAMED 1900-08-17 00:00:00 TS 20.1819 89.9430 main 175 172 _________OP___ -1 20.2000 89.9000 TC 64 20.1638 89.9859 4 2 293
1900227N20091 1900 15 NI BB NOT_NAMED 1900-08-17 03:00:00 TS 20.2387 89.8012 main 172 154 _________PO___ -1 20.2775 89.7025 TC 64 20.2000 89.9000 4 4 293
1900227N20091 1900 15 NI BB NOT_NAMED 1900-08-17 06:00:00 TS 20.3406 89.5452 main 151 124 _________OP___ -1 20.4000 89.4000 TC 64 20.2812 89.6904 4 6 293
1900227N20091 1900 15 NI BB NOT_NAMED 1900-08-17 09:00:00 TS 20.4702 89.2313 main 123 111 _________PP___ -1 20.5425 89.0650 TC 64 20.3978 89.3976 4 7 294
1900227N20091 1900 15 NI BB NOT_NAMED 1900-08-17 12:00:00 TS 20.6203 88.8780 main 111 89 _________OP___ -1 20.7000 88.7000 TC 64 20.5405 89.0560 4 7 294
1900227N20091 1900 15 NI BB NOT_NAMED 1900-08-17 15:00:00 TS 20.7712 88.5212 main 89 78 _________PO___ -1 20.8425 88.3424 TC 64 20.7000 88.7000 4 7 296
1900227N20091 1900 15 NI BB NOT_NAMED 1900-08-17 18:00:00 TS 20.9385 88.1791 main 78 59 _________OP___ -1 21.0000 88.0000 TC 64 20.8770 88.3582 4 7 300
1900227N20091 1900 15 NI BB NOT_NAMED 1900-08-17 21:00:00 TS 21.1364 87.8416 main 67 39 _________PP___ -1 21.2075 87.6701 TC 64 21.0653 88.0130 4 7 303
1900227N20091 1900 15 NI BB NOT_NAMED 1900-08-18 00:00:00 TS 21.3229 87.5432 main 35 11 _________OP___ -1 21.4000 87.4000 TC 64 21.2458 87.6863 4 6 304
1900227N20091 1900 15 NI BB NOT_NAMED 1900-08-18 03:00:00 TS 21.4612 87.3174 main 11 10 _________PO___ -1 21.5224 87.2349 TC 55 21.4000 87.4000 4 4 301
1900227N20091 1900 15 NI BB NOT_NAMED 1900-08-18 06:00:00 TS 21.5455 87.1528 main 10 0 _________OP___ -1 21.6000 87.1000 TC 47 21.4910 87.2056 4 3 295
1900227N20091 1900 15 NI BB NOT_NAMED 1900-08-18 09:00:00 TS 21.5995 86.9895 main 0 0 _________PP___ -1 21.6424 86.9298 TC 38 21.5567 87.0491 4 4 289
1900227N20091 1900 15 NI BB NOT_NAMED 1900-08-18 12:00:00 TS 21.6596 86.7965 main 0 0 _________OP___ -1 21.7000 86.7000 TC 30 21.6191 86.8931 4 5 292
1900227N20091 1900 15 NI BB NOT_NAMED 1900-08-18 15:00:00 TS 21.7675 86.5325 main 0 0 _________PO___ -1 21.8351 86.3651 TC 30 21.7000 86.7000 1 6 295
1900227N20091 1900 15 NI BB NOT_NAMED 1900-08-18 18:00:00 TS 21.9018 86.2270 main 0 0 _________OP___ -1 22.0000 86.0000 TC 30 21.8036 86.4539 1 6 296
1900227N20091 1900 15 NI BB NOT_NAMED 1900-08-18 21:00:00 TS 22.0294 85.9454 main 0 0 _________PP___ -1 22.1271 85.7296 TC 30 21.9317 86.1612 1 6 297
1900227N20091 1900 15 NI BB NOT_NAMED 1900-08-19 00:00:00 TS 22.1970 85.6065 main 0 0 _________OP___ -1 22.3000 85.4000 TC 30 22.0940 85.8129 1 8 299
1900227N20091 1900 15 NI BB NOT_NAMED 1900-08-19 03:00:00 TS 22.4388 85.1438 main 0 0 _________PO___ -1 22.5776 84.8877 TC 30 22.3000 85.4000 1 11 300
1900227N20091 1900 15 NI BB NOT_NAMED 1900-08-19 06:00:00 TS 22.7325 84.6137 main 0 0 _________OP___ -1 22.9000 84.3000 TC 30 22.5651 84.9274 1 12 301
1900227N20091 1900 15 NI BB NOT_NAMED 1900-08-19 09:00:00 TS 23.0349 84.0739 main 0 0 _________PP___ -1 23.1997 83.7572 TC 30 22.8700 84.3906 1 12 301
1900227N20091 1900 15 NI BB NOT_NAMED 1900-08-19 12:00:00 TS 23.3449 83.5042 main 0 0 _________OP___ -1 23.5000 83.2000 TC 30 23.1898 83.8084 1 12 300
1900227N20091 1900 15 NI BB NOT_NAMED 1900-08-19 15:00:00 TS 23.6574 82.9075 main 0 0 _________PO___ -1 23.8148 82.6149 TC 30 23.5000 83.2000 1 13 298
1900227N20091 1900 15 NI BB NOT_NAMED 1900-08-19 18:00:00 TS 23.9467 82.2783 main 0 0 _________OP___ -1 24.1000 82.0000 TC 30 23.7934 82.5565 1 13 294
1900227N20091 1900 15 NI BB NOT_NAMED 1900-08-19 21:00:00 TS 24.1994 81.6055 main 0 0 _________PP___ -1 24.3303 81.3125 TC 30 24.0685 81.8985 1 13 291
1900227N20091 1900 15 NI BB NOT_NAMED 1900-08-20 00:00:00 TS 24.4046 80.9830 main 0 0 _________OP___ -1 24.5000 80.7000 TC 30 24.3092 81.2661 1 11 290
1900227N20091 1900 15 NI BB NOT_NAMED 1900-08-20 03:00:00 TS 24.5610 80.5061 main 0 0 _________PO___ -1 24.6220 80.3122 TC 30 24.5000 80.7000 1 8 288
1900227N20091 1900 15 NI BB NOT_NAMED 1900-08-20 06:00:00 TS 24.6577 80.1338 main 0 0 _________OP___ -1 24.7000 80.0000 TC 30 24.6154 80.2677 1 7 283
1900227N20091 1900 15 NI BB NOT_NAMED 1900-08-20 09:00:00 TS 24.7175 79.7626 main 0 0 _________PP___ -1 24.7498 79.6223 TC 30 24.6852 79.9029 1 7 279
1900227N20091 1900 15 NI BB NOT_NAMED 1900-08-20 12:00:00 TS 24.7688 79.3809 main 0 0 _________OP___ -1 24.8000 79.2000 TC 30 24.7375 79.5617 1 7 280
1900227N20091 1900 15 NI BB NOT_NAMED 1900-08-20 15:00:00 TS 24.8425 78.9537 main 0 0 _________PO___ -1 24.8850 78.7075 TC 30 24.8000 79.2000 1 8 282
1900227N20091 1900 15 NI BB NOT_NAMED 1900-08-20 18:00:00 TS 24.9393 78.5333 main 0 0 _________OP___ -1 25.0000 78.2000 TC 30 24.8938 78.7832 1 8 286
1900227N20091 1900 15 NI BB NOT_NAMED 1900-08-20 21:00:00 TS 25.0660 78.0843 main 0 0 _________PP___ -1 25.1426 77.7352 TC 30 25.0149 78.3170 1 8 288
1900227N20091 1900 15 NI AS NOT_NAMED 1900-08-21 00:00:00 TS 25.2024 77.6448 main 0 0 _________OP___ -1 25.3000 77.3000 TC 30 25.1536 77.8172 1 7 288
1900227N20091 1900 15 NI AS NOT_NAMED 1900-08-21 03:00:00 NR 25.3000 77.3000 main 0 __________O___ -1 TC 25.3000 77.3000 1 7 287

About IBTrACS Database

This database is a web-friendly format of International Best Track Archive for Climate Stewardship (IBTrACS), a global best track data archive curated by NOAA dating back to 1842.

Updated: 2021-10-08